sensor_id;sensor_type;location;lat;lon;timestamp;P1;durP1;ratioP1;P2;durP2;ratioP2
577;SDS011;275;48.492;9.214;2023-06-22T00:00:54;10.43;;;9.37;;
577;SDS011;275;48.492;9.214;2023-06-22T00:03:21;14.17;;;10.77;;
577;SDS011;275;48.492;9.214;2023-06-22T00:05:51;10.30;;;8.73;;
577;SDS011;275;48.492;9.214;2023-06-22T00:08:19;11.53;;;8.77;;
577;SDS011;275;48.492;9.214;2023-06-22T00:10:46;11.60;;;10.40;;
577;SDS011;275;48.492;9.214;2023-06-22T00:13:13;10.60;;;9.60;;
577;SDS011;275;48.492;9.214;2023-06-22T00:15:41;10.07;;;9.00;;
577;SDS011;275;48.492;9.214;2023-06-22T00:18:08;10.77;;;9.77;;
577;SDS011;275;48.492;9.214;2023-06-22T00:20:37;11.13;;;10.13;;
577;SDS011;275;48.492;9.214;2023-06-22T00:23:05;11.53;;;9.77;;
577;SDS011;275;48.492;9.214;2023-06-22T00:25:33;11.90;;;10.70;;
577;SDS011;275;48.492;9.214;2023-06-22T00:28:00;11.93;;;10.80;;
577;SDS011;275;48.492;9.214;2023-06-22T00:30:27;11.03;;;10.03;;
577;SDS011;275;48.492;9.214;2023-06-22T00:32:54;10.60;;;9.60;;
577;SDS011;275;48.492;9.214;2023-06-22T00:35:21;10.43;;;9.37;;
577;SDS011;275;48.492;9.214;2023-06-22T00:37:48;11.63;;;10.43;;
577;SDS011;275;48.492;9.214;2023-06-22T00:40:18;11.17;;;10.13;;
577;SDS011;275;48.492;9.214;2023-06-22T00:42:46;10.83;;;9.70;;
577;SDS011;275;48.492;9.214;2023-06-22T00:45:13;11.67;;;10.60;;
577;SDS011;275;48.492;9.214;2023-06-22T00:47:40;11.87;;;10.70;;
577;SDS011;275;48.492;9.214;2023-06-22T00:50:08;12.00;;;10.43;;
577;SDS011;275;48.492;9.214;2023-06-22T00:52:43;11.87;;;10.67;;
577;SDS011;275;48.492;9.214;2023-06-22T00:55:11;11.93;;;10.73;;
577;SDS011;275;48.492;9.214;2023-06-22T00:57:40;14.27;;;10.80;;
577;SDS011;275;48.492;9.214;2023-06-22T01:00:08;11.67;;;10.17;;
577;SDS011;275;48.492;9.214;2023-06-22T01:02:44;12.53;;;9.90;;
577;SDS011;275;48.492;9.214;2023-06-22T01:05:11;12.13;;;10.93;;
577;SDS011;275;48.492;9.214;2023-06-22T01:07:39;11.50;;;10.30;;
577;SDS011;275;48.492;9.214;2023-06-22T01:10:13;10.63;;;9.50;;
577;SDS011;275;48.492;9.214;2023-06-22T01:12:47;12.53;;;10.37;;
577;SDS011;275;48.492;9.214;2023-06-22T01:15:18;10.23;;;9.23;;
577;SDS011;275;48.492;9.214;2023-06-22T01:17:51;10.90;;;9.80;;
577;SDS011;275;48.492;9.214;2023-06-22T01:20:19;11.53;;;10.50;;
577;SDS011;275;48.492;9.214;2023-06-22T01:22:52;10.63;;;9.63;;
577;SDS011;275;48.492;9.214;2023-06-22T01:25:28;10.90;;;9.83;;
577;SDS011;275;48.492;9.214;2023-06-22T01:28:04;10.87;;;9.87;;
577;SDS011;275;48.492;9.214;2023-06-22T01:30:41;12.70;;;11.50;;
577;SDS011;275;48.492;9.214;2023-06-22T01:33:11;13.33;;;12.13;;
577;SDS011;275;48.492;9.214;2023-06-22T01:35:40;13.70;;;12.33;;
577;SDS011;275;48.492;9.214;2023-06-22T01:38:08;12.43;;;11.23;;
577;SDS011;275;48.492;9.214;2023-06-22T01:40:36;12.37;;;11.27;;
577;SDS011;275;48.492;9.214;2023-06-22T01:43:03;12.40;;;11.37;;
577;SDS011;275;48.492;9.214;2023-06-22T01:45:31;13.47;;;12.07;;
577;SDS011;275;48.492;9.214;2023-06-22T01:47:59;12.13;;;10.93;;
577;SDS011;275;48.492;9.214;2023-06-22T01:50:27;12.40;;;11.30;;
577;SDS011;275;48.492;9.214;2023-06-22T01:52:54;13.20;;;11.50;;
577;SDS011;275;48.492;9.214;2023-06-22T01:55:21;11.27;;;10.23;;
577;SDS011;275;48.492;9.214;2023-06-22T01:57:48;12.27;;;11.17;;
577;SDS011;275;48.492;9.214;2023-06-22T02:00:16;12.23;;;11.00;;
577;SDS011;275;48.492;9.214;2023-06-22T02:02:49;14.50;;;10.53;;
577;SDS011;275;48.492;9.214;2023-06-22T02:05:23;11.83;;;10.43;;
577;SDS011;275;48.492;9.214;2023-06-22T02:07:54;12.73;;;11.17;;
577;SDS011;275;48.492;9.214;2023-06-22T02:10:26;11.83;;;10.63;;
577;SDS011;275;48.492;9.214;2023-06-22T02:12:54;12.93;;;11.50;;
577;SDS011;275;48.492;9.214;2023-06-22T02:15:25;13.40;;;11.93;;
577;SDS011;275;48.492;9.214;2023-06-22T02:17:52;12.43;;;11.13;;
577;SDS011;275;48.492;9.214;2023-06-22T02:20:19;12.80;;;11.57;;
577;SDS011;275;48.492;9.214;2023-06-22T02:22:47;12.63;;;11.63;;
577;SDS011;275;48.492;9.214;2023-06-22T02:25:16;12.23;;;11.00;;
577;SDS011;275;48.492;9.214;2023-06-22T02:27:44;11.90;;;10.90;;
577;SDS011;275;48.492;9.214;2023-06-22T02:30:11;12.23;;;11.07;;
577;SDS011;275;48.492;9.214;2023-06-22T02:32:40;14.20;;;12.80;;
577;SDS011;275;48.492;9.214;2023-06-22T02:35:07;12.53;;;11.10;;
577;SDS011;275;48.492;9.214;2023-06-22T02:37:35;12.13;;;10.93;;
577;SDS011;275;48.492;9.214;2023-06-22T02:40:08;11.80;;;10.60;;
577;SDS011;275;48.492;9.214;2023-06-22T02:42:36;12.00;;;10.80;;
577;SDS011;275;48.492;9.214;2023-06-22T02:45:03;12.53;;;10.23;;
577;SDS011;275;48.492;9.214;2023-06-22T02:47:30;13.30;;;11.63;;
577;SDS011;275;48.492;9.214;2023-06-22T02:49:57;11.30;;;10.30;;
577;SDS011;275;48.492;9.214;2023-06-22T02:52:24;11.80;;;10.70;;
577;SDS011;275;48.492;9.214;2023-06-22T02:54:51;15.33;;;11.33;;
577;SDS011;275;48.492;9.214;2023-06-22T02:57:19;12.00;;;10.80;;
577;SDS011;275;48.492;9.214;2023-06-22T02:59:46;11.20;;;10.10;;
577;SDS011;275;48.492;9.214;2023-06-22T03:02:13;11.63;;;10.53;;
577;SDS011;275;48.492;9.214;2023-06-22T03:04:40;12.43;;;10.37;;
577;SDS011;275;48.492;9.214;2023-06-22T03:07:07;13.70;;;10.80;;
577;SDS011;275;48.492;9.214;2023-06-22T03:09:34;11.80;;;10.80;;
577;SDS011;275;48.492;9.214;2023-06-22T03:12:01;10.70;;;9.70;;
577;SDS011;275;48.492;9.214;2023-06-22T03:14:30;12.13;;;10.83;;
577;SDS011;275;48.492;9.214;2023-06-22T03:16:56;12.23;;;11.00;;
577;SDS011;275;48.492;9.214;2023-06-22T03:19:28;12.47;;;10.77;;
577;SDS011;275;48.492;9.214;2023-06-22T03:21:56;11.90;;;10.70;;
577;SDS011;275;48.492;9.214;2023-06-22T03:24:23;12.33;;;11.20;;
577;SDS011;275;48.492;9.214;2023-06-22T03:26:50;11.30;;;10.20;;
577;SDS011;275;48.492;9.214;2023-06-22T03:29:16;12.23;;;10.97;;
577;SDS011;275;48.492;9.214;2023-06-22T03:31:47;11.90;;;10.90;;
577;SDS011;275;48.492;9.214;2023-06-22T03:34:14;11.17;;;9.30;;
577;SDS011;275;48.492;9.214;2023-06-22T03:36:40;11.10;;;9.87;;
577;SDS011;275;48.492;9.214;2023-06-22T03:39:11;11.13;;;10.13;;
577;SDS011;275;48.492;9.214;2023-06-22T03:41:38;11.00;;;9.90;;
577;SDS011;275;48.492;9.214;2023-06-22T03:44:05;9.97;;;8.97;;
577;SDS011;275;48.492;9.214;2023-06-22T03:46:31;10.63;;;9.00;;
577;SDS011;275;48.492;9.214;2023-06-22T03:49:00;11.10;;;10.00;;
577;SDS011;275;48.492;9.214;2023-06-22T03:51:28;11.97;;;9.80;;
577;SDS011;275;48.492;9.214;2023-06-22T03:53:55;9.83;;;8.83;;
577;SDS011;275;48.492;9.214;2023-06-22T03:56:22;13.20;;;8.93;;
577;SDS011;275;48.492;9.214;2023-06-22T03:58:48;11.70;;;8.93;;
577;SDS011;275;48.492;9.214;2023-06-22T04:01:15;11.30;;;10.13;;
577;SDS011;275;48.492;9.214;2023-06-22T04:03:43;9.70;;;8.53;;
577;SDS011;275;48.492;9.214;2023-06-22T04:06:11;10.17;;;9.17;;
577;SDS011;275;48.492;9.214;2023-06-22T04:08:38;10.07;;;9.07;;
577;SDS011;275;48.492;9.214;2023-06-22T04:11:05;10.20;;;8.50;;
577;SDS011;275;48.492;9.214;2023-06-22T04:13:32;9.77;;;8.77;;
577;SDS011;275;48.492;9.214;2023-06-22T04:15:59;11.43;;;9.20;;
577;SDS011;275;48.492;9.214;2023-06-22T04:18:26;9.70;;;8.70;;
577;SDS011;275;48.492;9.214;2023-06-22T04:20:53;10.30;;;8.97;;
577;SDS011;275;48.492;9.214;2023-06-22T04:23:21;13.60;;;8.97;;
577;SDS011;275;48.492;9.214;2023-06-22T04:25:48;9.53;;;8.50;;
577;SDS011;275;48.492;9.214;2023-06-22T04:28:16;12.93;;;9.00;;
577;SDS011;275;48.492;9.214;2023-06-22T04:30:43;11.50;;;7.70;;
577;SDS011;275;48.492;9.214;2023-06-22T04:33:12;10.70;;;8.73;;
577;SDS011;275;48.492;9.214;2023-06-22T04:35:39;12.23;;;8.73;;
577;SDS011;275;48.492;9.214;2023-06-22T04:38:07;12.50;;;9.30;;
577;SDS011;275;48.492;9.214;2023-06-22T04:40:35;11.83;;;8.13;;
577;SDS011;275;48.492;9.214;2023-06-22T04:43:02;13.60;;;10.00;;
577;SDS011;275;48.492;9.214;2023-06-22T04:45:31;10.17;;;9.10;;
577;SDS011;275;48.492;9.214;2023-06-22T04:47:58;9.13;;;8.23;;
577;SDS011;275;48.492;9.214;2023-06-22T04:50:25;9.73;;;8.73;;
577;SDS011;275;48.492;9.214;2023-06-22T04:52:51;9.83;;;8.83;;
577;SDS011;275;48.492;9.214;2023-06-22T04:55:19;9.67;;;8.67;;
577;SDS011;275;48.492;9.214;2023-06-22T04:57:47;10.50;;;9.37;;
577;SDS011;275;48.492;9.214;2023-06-22T05:00:15;10.77;;;9.27;;
577;SDS011;275;48.492;9.214;2023-06-22T05:02:44;9.87;;;8.87;;
577;SDS011;275;48.492;9.214;2023-06-22T05:05:12;11.13;;;9.40;;
577;SDS011;275;48.492;9.214;2023-06-22T05:07:40;10.17;;;8.87;;
577;SDS011;275;48.492;9.214;2023-06-22T05:10:09;11.57;;;9.87;;
577;SDS011;275;48.492;9.214;2023-06-22T05:12:37;11.27;;;10.07;;
577;SDS011;275;48.492;9.214;2023-06-22T05:15:06;13.90;;;9.80;;
577;SDS011;275;48.492;9.214;2023-06-22T05:17:34;13.40;;;10.80;;
577;SDS011;275;48.492;9.214;2023-06-22T05:20:01;11.97;;;9.87;;
577;SDS011;275;48.492;9.214;2023-06-22T05:22:31;10.17;;;9.17;;
577;SDS011;275;48.492;9.214;2023-06-22T05:24:58;14.80;;;9.50;;
577;SDS011;275;48.492;9.214;2023-06-22T05:27:24;9.83;;;8.83;;
577;SDS011;275;48.492;9.214;2023-06-22T05:29:51;11.40;;;10.20;;
577;SDS011;275;48.492;9.214;2023-06-22T05:32:19;16.50;;;10.93;;
577;SDS011;275;48.492;9.214;2023-06-22T05:34:46;11.80;;;10.50;;
577;SDS011;275;48.492;9.214;2023-06-22T05:37:13;11.37;;;10.20;;
577;SDS011;275;48.492;9.214;2023-06-22T05:39:40;10.97;;;9.70;;
577;SDS011;275;48.492;9.214;2023-06-22T05:42:07;12.30;;;10.47;;
577;SDS011;275;48.492;9.214;2023-06-22T05:44:34;11.80;;;10.60;;
577;SDS011;275;48.492;9.214;2023-06-22T05:47:02;11.20;;;10.07;;
577;SDS011;275;48.492;9.214;2023-06-22T05:49:31;11.30;;;10.20;;
577;SDS011;275;48.492;9.214;2023-06-22T05:51:58;11.17;;;10.07;;
577;SDS011;275;48.492;9.214;2023-06-22T05:54:25;10.63;;;9.50;;
577;SDS011;275;48.492;9.214;2023-06-22T05:56:53;11.17;;;9.97;;
577;SDS011;275;48.492;9.214;2023-06-22T05:59:20;11.20;;;9.67;;
577;SDS011;275;48.492;9.214;2023-06-22T06:01:46;12.93;;;11.47;;
577;SDS011;275;48.492;9.214;2023-06-22T06:04:15;11.57;;;10.30;;
577;SDS011;275;48.492;9.214;2023-06-22T06:06:44;11.90;;;9.00;;
577;SDS011;275;48.492;9.214;2023-06-22T06:09:12;11.30;;;10.20;;
577;SDS011;275;48.492;9.214;2023-06-22T06:11:39;11.00;;;9.90;;
577;SDS011;275;48.492;9.214;2023-06-22T06:14:06;14.50;;;9.93;;
577;SDS011;275;48.492;9.214;2023-06-22T06:16:32;11.50;;;10.30;;
577;SDS011;275;48.492;9.214;2023-06-22T06:18:59;10.17;;;9.27;;
577;SDS011;275;48.492;9.214;2023-06-22T06:21:26;13.43;;;9.80;;
577;SDS011;275;48.492;9.214;2023-06-22T06:23:54;10.50;;;9.40;;
577;SDS011;275;48.492;9.214;2023-06-22T06:26:21;10.43;;;9.30;;
577;SDS011;275;48.492;9.214;2023-06-22T06:28:53;12.40;;;10.57;;
577;SDS011;275;48.492;9.214;2023-06-22T06:31:20;11.73;;;9.73;;
577;SDS011;275;48.492;9.214;2023-06-22T06:33:48;11.87;;;9.97;;
577;SDS011;275;48.492;9.214;2023-06-22T06:36:15;11.57;;;10.40;;
577;SDS011;275;48.492;9.214;2023-06-22T06:38:41;10.27;;;9.07;;
577;SDS011;275;48.492;9.214;2023-06-22T06:41:10;10.83;;;9.60;;
577;SDS011;275;48.492;9.214;2023-06-22T06:43:36;9.70;;;8.60;;
577;SDS011;275;48.492;9.214;2023-06-22T06:46:03;10.53;;;9.00;;
577;SDS011;275;48.492;9.214;2023-06-22T06:48:30;11.60;;;9.73;;
577;SDS011;275;48.492;9.214;2023-06-22T06:50:57;10.80;;;9.47;;
577;SDS011;275;48.492;9.214;2023-06-22T06:53:24;10.50;;;8.47;;
577;SDS011;275;48.492;9.214;2023-06-22T06:55:51;12.23;;;9.10;;
577;SDS011;275;48.492;9.214;2023-06-22T06:58:19;10.37;;;9.00;;
577;SDS011;275;48.492;9.214;2023-06-22T07:00:48;11.20;;;8.63;;
577;SDS011;275;48.492;9.214;2023-06-22T07:03:14;11.50;;;8.53;;
577;SDS011;275;48.492;9.214;2023-06-22T07:05:41;11.33;;;9.30;;
577;SDS011;275;48.492;9.214;2023-06-22T07:08:08;10.47;;;8.20;;
577;SDS011;275;48.492;9.214;2023-06-22T07:10:36;9.10;;;7.53;;
577;SDS011;275;48.492;9.214;2023-06-22T07:13:03;10.17;;;9.10;;
577;SDS011;275;48.492;9.214;2023-06-22T07:15:31;13.20;;;8.03;;
577;SDS011;275;48.492;9.214;2023-06-22T07:17:58;9.63;;;7.83;;
577;SDS011;275;48.492;9.214;2023-06-22T07:20:25;11.80;;;8.80;;
577;SDS011;275;48.492;9.214;2023-06-22T07:22:52;10.40;;;7.97;;
577;SDS011;275;48.492;9.214;2023-06-22T07:25:19;10.40;;;7.43;;
577;SDS011;275;48.492;9.214;2023-06-22T07:27:46;11.47;;;7.10;;
577;SDS011;275;48.492;9.214;2023-06-22T07:30:23;9.00;;;7.00;;
577;SDS011;275;48.492;9.214;2023-06-22T07:32:52;8.87;;;7.00;;
577;SDS011;275;48.492;9.214;2023-06-22T07:35:19;10.70;;;7.93;;
577;SDS011;275;48.492;9.214;2023-06-22T07:37:46;8.83;;;7.53;;
577;SDS011;275;48.492;9.214;2023-06-22T07:40:12;9.57;;;7.03;;
577;SDS011;275;48.492;9.214;2023-06-22T07:42:39;7.90;;;7.10;;
577;SDS011;275;48.492;9.214;2023-06-22T07:45:07;9.50;;;7.17;;
577;SDS011;275;48.492;9.214;2023-06-22T07:47:34;11.97;;;7.67;;
577;SDS011;275;48.492;9.214;2023-06-22T07:50:03;9.50;;;7.40;;
577;SDS011;275;48.492;9.214;2023-06-22T07:52:30;8.70;;;6.67;;
577;SDS011;275;48.492;9.214;2023-06-22T07:54:58;8.87;;;6.73;;
577;SDS011;275;48.492;9.214;2023-06-22T07:57:25;7.40;;;6.70;;
577;SDS011;275;48.492;9.214;2023-06-22T07:59:57;10.53;;;7.10;;
577;SDS011;275;48.492;9.214;2023-06-22T08:02:24;7.53;;;6.63;;
577;SDS011;275;48.492;9.214;2023-06-22T08:04:51;7.40;;;6.67;;
577;SDS011;275;48.492;9.214;2023-06-22T08:07:19;11.70;;;7.20;;
577;SDS011;275;48.492;9.214;2023-06-22T08:09:47;8.47;;;7.27;;
577;SDS011;275;48.492;9.214;2023-06-22T08:12:14;10.07;;;6.33;;
577;SDS011;275;48.492;9.214;2023-06-22T08:14:41;7.47;;;6.07;;
577;SDS011;275;48.492;9.214;2023-06-22T08:17:09;7.70;;;6.90;;
577;SDS011;275;48.492;9.214;2023-06-22T08:19:36;6.63;;;5.77;;
577;SDS011;275;48.492;9.214;2023-06-22T08:22:04;9.10;;;7.10;;
577;SDS011;275;48.492;9.214;2023-06-22T08:24:32;10.83;;;6.03;;
577;SDS011;275;48.492;9.214;2023-06-22T08:26:59;10.73;;;6.53;;
577;SDS011;275;48.492;9.214;2023-06-22T08:29:26;7.60;;;6.20;;
577;SDS011;275;48.492;9.214;2023-06-22T08:31:53;10.00;;;6.40;;
577;SDS011;275;48.492;9.214;2023-06-22T08:34:19;10.43;;;6.10;;
577;SDS011;275;48.492;9.214;2023-06-22T08:36:50;11.20;;;7.13;;
577;SDS011;275;48.492;9.214;2023-06-22T08:39:17;14.03;;;8.13;;
577;SDS011;275;48.492;9.214;2023-06-22T08:41:46;8.97;;;7.43;;
577;SDS011;275;48.492;9.214;2023-06-22T08:44:13;9.77;;;7.57;;
577;SDS011;275;48.492;9.214;2023-06-22T08:46:40;12.80;;;7.83;;
577;SDS011;275;48.492;9.214;2023-06-22T08:49:07;9.50;;;7.07;;
577;SDS011;275;48.492;9.214;2023-06-22T08:51:35;10.10;;;7.23;;
577;SDS011;275;48.492;9.214;2023-06-22T08:54:02;9.53;;;6.77;;
577;SDS011;275;48.492;9.214;2023-06-22T08:56:30;10.10;;;7.30;;
577;SDS011;275;48.492;9.214;2023-06-22T08:58:58;9.87;;;7.90;;
577;SDS011;275;48.492;9.214;2023-06-22T09:01:25;8.70;;;7.10;;
577;SDS011;275;48.492;9.214;2023-06-22T09:03:52;9.43;;;6.83;;
577;SDS011;275;48.492;9.214;2023-06-22T09:06:22;9.43;;;6.77;;
577;SDS011;275;48.492;9.214;2023-06-22T09:08:49;12.13;;;6.93;;
577;SDS011;275;48.492;9.214;2023-06-22T09:11:16;9.30;;;7.40;;
577;SDS011;275;48.492;9.214;2023-06-22T09:13:43;8.30;;;6.80;;
577;SDS011;275;48.492;9.214;2023-06-22T09:16:12;7.50;;;6.77;;
577;SDS011;275;48.492;9.214;2023-06-22T09:18:39;10.33;;;7.40;;
577;SDS011;275;48.492;9.214;2023-06-22T09:21:07;9.17;;;6.83;;
577;SDS011;275;48.492;9.214;2023-06-22T09:23:33;10.80;;;6.23;;
577;SDS011;275;48.492;9.214;2023-06-22T09:26:00;9.80;;;7.53;;
577;SDS011;275;48.492;9.214;2023-06-22T09:28:27;9.57;;;6.83;;
577;SDS011;275;48.492;9.214;2023-06-22T09:30:54;10.40;;;6.90;;
577;SDS011;275;48.492;9.214;2023-06-22T09:33:24;9.27;;;7.90;;
577;SDS011;275;48.492;9.214;2023-06-22T09:35:51;8.23;;;6.20;;
577;SDS011;275;48.492;9.214;2023-06-22T09:38:18;10.30;;;6.77;;
577;SDS011;275;48.492;9.214;2023-06-22T09:40:45;9.53;;;7.50;;
577;SDS011;275;48.492;9.214;2023-06-22T09:43:12;11.13;;;7.40;;
577;SDS011;275;48.492;9.214;2023-06-22T09:45:38;10.07;;;7.50;;
577;SDS011;275;48.492;9.214;2023-06-22T09:48:05;9.27;;;6.50;;
577;SDS011;275;48.492;9.214;2023-06-22T09:50:33;13.27;;;7.20;;
577;SDS011;275;48.492;9.214;2023-06-22T09:53:00;11.07;;;7.20;;
577;SDS011;275;48.492;9.214;2023-06-22T09:55:27;7.40;;;6.70;;
577;SDS011;275;48.492;9.214;2023-06-22T09:57:54;10.60;;;7.97;;
577;SDS011;275;48.492;9.214;2023-06-22T10:00:21;8.10;;;7.20;;
577;SDS011;275;48.492;9.214;2023-06-22T10:02:48;9.73;;;6.33;;
577;SDS011;275;48.492;9.214;2023-06-22T10:05:15;10.23;;;6.70;;
577;SDS011;275;48.492;9.214;2023-06-22T10:07:44;11.83;;;7.00;;
577;SDS011;275;48.492;9.214;2023-06-22T10:10:11;8.60;;;7.70;;
577;SDS011;275;48.492;9.214;2023-06-22T10:12:40;10.60;;;8.93;;
577;SDS011;275;48.492;9.214;2023-06-22T10:15:09;12.80;;;8.10;;
577;SDS011;275;48.492;9.214;2023-06-22T10:17:36;12.23;;;8.07;;
577;SDS011;275;48.492;9.214;2023-06-22T10:20:04;9.87;;;7.50;;
577;SDS011;275;48.492;9.214;2023-06-22T10:22:36;8.80;;;7.30;;
577;SDS011;275;48.492;9.214;2023-06-22T10:25:05;8.50;;;6.77;;
577;SDS011;275;48.492;9.214;2023-06-22T10:27:33;9.97;;;7.10;;
577;SDS011;275;48.492;9.214;2023-06-22T10:29:59;10.20;;;6.77;;
577;SDS011;275;48.492;9.214;2023-06-22T10:32:26;12.17;;;6.47;;
577;SDS011;275;48.492;9.214;2023-06-22T10:34:54;10.63;;;7.23;;
577;SDS011;275;48.492;9.214;2023-06-22T10:37:21;7.70;;;6.27;;
577;SDS011;275;48.492;9.214;2023-06-22T10:39:48;9.97;;;6.63;;
577;SDS011;275;48.492;9.214;2023-06-22T10:42:16;9.43;;;6.63;;
577;SDS011;275;48.492;9.214;2023-06-22T10:44:43;9.87;;;6.70;;
577;SDS011;275;48.492;9.214;2023-06-22T10:47:10;9.70;;;6.70;;
577;SDS011;275;48.492;9.214;2023-06-22T10:49:37;9.00;;;8.07;;
577;SDS011;275;48.492;9.214;2023-06-22T10:52:05;10.20;;;7.40;;
577;SDS011;275;48.492;9.214;2023-06-22T10:54:32;12.07;;;7.43;;
577;SDS011;275;48.492;9.214;2023-06-22T10:56:59;11.07;;;7.73;;
577;SDS011;275;48.492;9.214;2023-06-22T10:59:28;11.13;;;7.77;;
577;SDS011;275;48.492;9.214;2023-06-22T11:01:55;11.33;;;7.67;;
577;SDS011;275;48.492;9.214;2023-06-22T11:04:21;10.90;;;8.07;;
577;SDS011;275;48.492;9.214;2023-06-22T11:06:48;13.10;;;7.57;;
577;SDS011;275;48.492;9.214;2023-06-22T11:09:15;7.63;;;6.83;;
577;SDS011;275;48.492;9.214;2023-06-22T11:11:45;8.83;;;7.13;;
577;SDS011;275;48.492;9.214;2023-06-22T11:14:17;13.13;;;6.90;;
577;SDS011;275;48.492;9.214;2023-06-22T11:16:46;11.67;;;7.70;;
577;SDS011;275;48.492;9.214;2023-06-22T11:19:13;14.33;;;7.57;;
577;SDS011;275;48.492;9.214;2023-06-22T11:21:40;11.83;;;7.50;;
577;SDS011;275;48.492;9.214;2023-06-22T11:24:07;10.73;;;7.00;;
577;SDS011;275;48.492;9.214;2023-06-22T11:26:34;10.97;;;6.90;;
577;SDS011;275;48.492;9.214;2023-06-22T11:29:01;10.60;;;6.90;;
577;SDS011;275;48.492;9.214;2023-06-22T11:31:30;13.43;;;7.90;;
577;SDS011;275;48.492;9.214;2023-06-22T11:33:58;8.90;;;6.90;;
577;SDS011;275;48.492;9.214;2023-06-22T11:36:25;9.20;;;7.43;;
577;SDS011;275;48.492;9.214;2023-06-22T11:38:54;10.13;;;7.50;;
577;SDS011;275;48.492;9.214;2023-06-22T11:41:21;10.70;;;8.93;;
577;SDS011;275;48.492;9.214;2023-06-22T11:43:48;11.67;;;7.57;;
577;SDS011;275;48.492;9.214;2023-06-22T11:46:15;13.93;;;7.80;;
577;SDS011;275;48.492;9.214;2023-06-22T11:48:42;9.20;;;7.77;;
577;SDS011;275;48.492;9.214;2023-06-22T11:51:10;12.60;;;7.50;;
577;SDS011;275;48.492;9.214;2023-06-22T11:53:37;12.43;;;8.40;;
577;SDS011;275;48.492;9.214;2023-06-22T11:56:04;12.33;;;8.07;;
577;SDS011;275;48.492;9.214;2023-06-22T11:58:30;8.90;;;6.60;;
577;SDS011;275;48.492;9.214;2023-06-22T12:00:57;11.00;;;8.87;;
577;SDS011;275;48.492;9.214;2023-06-22T12:03:24;12.73;;;7.47;;
577;SDS011;275;48.492;9.214;2023-06-22T12:05:51;11.60;;;7.53;;
577;SDS011;275;48.492;9.214;2023-06-22T12:08:20;14.87;;;7.20;;
577;SDS011;275;48.492;9.214;2023-06-22T12:10:48;12.77;;;7.53;;
577;SDS011;275;48.492;9.214;2023-06-22T12:13:16;14.57;;;8.47;;
577;SDS011;275;48.492;9.214;2023-06-22T12:15:43;9.93;;;7.17;;
577;SDS011;275;48.492;9.214;2023-06-22T12:18:10;11.67;;;7.67;;
577;SDS011;275;48.492;9.214;2023-06-22T12:20:39;10.80;;;8.23;;
577;SDS011;275;48.492;9.214;2023-06-22T12:23:06;11.20;;;7.83;;
577;SDS011;275;48.492;9.214;2023-06-22T12:25:34;10.00;;;7.83;;
577;SDS011;275;48.492;9.214;2023-06-22T12:28:01;10.47;;;8.40;;
577;SDS011;275;48.492;9.214;2023-06-22T12:30:29;16.83;;;9.40;;
577;SDS011;275;48.492;9.214;2023-06-22T12:32:56;12.77;;;8.63;;
577;SDS011;275;48.492;9.214;2023-06-22T12:35:23;14.90;;;8.70;;
577;SDS011;275;48.492;9.214;2023-06-22T12:37:50;13.77;;;8.93;;
577;SDS011;275;48.492;9.214;2023-06-22T12:40:16;15.47;;;8.70;;
577;SDS011;275;48.492;9.214;2023-06-22T12:42:45;10.60;;;9.13;;
577;SDS011;275;48.492;9.214;2023-06-22T12:45:12;12.40;;;8.50;;
577;SDS011;275;48.492;9.214;2023-06-22T12:47:39;14.30;;;7.80;;
577;SDS011;275;48.492;9.214;2023-06-22T12:50:06;12.83;;;8.50;;
577;SDS011;275;48.492;9.214;2023-06-22T12:52:35;11.50;;;8.70;;
577;SDS011;275;48.492;9.214;2023-06-22T12:55:04;9.20;;;8.30;;
577;SDS011;275;48.492;9.214;2023-06-22T12:57:31;11.53;;;8.03;;
577;SDS011;275;48.492;9.214;2023-06-22T12:59:59;12.80;;;8.90;;
577;SDS011;275;48.492;9.214;2023-06-22T13:02:26;15.33;;;8.23;;
577;SDS011;275;48.492;9.214;2023-06-22T13:04:53;10.90;;;7.83;;
577;SDS011;275;48.492;9.214;2023-06-22T13:07:20;13.43;;;9.00;;
577;SDS011;275;48.492;9.214;2023-06-22T13:09:47;11.50;;;7.97;;
577;SDS011;275;48.492;9.214;2023-06-22T13:12:16;10.87;;;8.83;;
577;SDS011;275;48.492;9.214;2023-06-22T13:14:44;12.67;;;9.20;;
577;SDS011;275;48.492;9.214;2023-06-22T13:17:13;13.60;;;8.13;;
577;SDS011;275;48.492;9.214;2023-06-22T13:19:40;11.17;;;8.20;;
577;SDS011;275;48.492;9.214;2023-06-22T13:22:24;12.40;;;9.10;;
577;SDS011;275;48.492;9.214;2023-06-22T13:24:53;9.83;;;8.70;;
577;SDS011;275;48.492;9.214;2023-06-22T13:27:20;13.17;;;8.30;;
577;SDS011;275;48.492;9.214;2023-06-22T13:29:46;11.07;;;8.80;;
577;SDS011;275;48.492;9.214;2023-06-22T13:32:15;12.83;;;8.50;;
577;SDS011;275;48.492;9.214;2023-06-22T13:34:41;9.77;;;7.60;;
577;SDS011;275;48.492;9.214;2023-06-22T13:37:08;12.23;;;8.47;;
577;SDS011;275;48.492;9.214;2023-06-22T13:39:35;12.40;;;7.90;;
577;SDS011;275;48.492;9.214;2023-06-22T13:42:02;17.13;;;8.17;;
577;SDS011;275;48.492;9.214;2023-06-22T13:44:29;10.30;;;7.73;;
577;SDS011;275;48.492;9.214;2023-06-22T13:46:56;10.70;;;8.20;;
577;SDS011;275;48.492;9.214;2023-06-22T13:49:24;12.80;;;8.23;;
577;SDS011;275;48.492;9.214;2023-06-22T13:51:51;11.83;;;8.90;;
577;SDS011;275;48.492;9.214;2023-06-22T13:54:18;14.20;;;7.90;;
577;SDS011;275;48.492;9.214;2023-06-22T13:56:45;11.07;;;8.17;;
577;SDS011;275;48.492;9.214;2023-06-22T13:59:12;15.20;;;8.23;;
577;SDS011;275;48.492;9.214;2023-06-22T14:01:39;10.27;;;7.50;;
577;SDS011;275;48.492;9.214;2023-06-22T14:04:06;11.83;;;8.00;;
577;SDS011;275;48.492;9.214;2023-06-22T14:06:35;13.97;;;8.17;;
577;SDS011;275;48.492;9.214;2023-06-22T14:09:02;15.03;;;7.70;;
577;SDS011;275;48.492;9.214;2023-06-22T14:11:29;14.10;;;7.40;;
577;SDS011;275;48.492;9.214;2023-06-22T14:13:58;10.00;;;6.87;;
577;SDS011;275;48.492;9.214;2023-06-22T14:16:28;11.87;;;7.90;;
577;SDS011;275;48.492;9.214;2023-06-22T14:19:04;11.70;;;8.30;;
577;SDS011;275;48.492;9.214;2023-06-22T14:21:31;18.47;;;9.30;;
577;SDS011;275;48.492;9.214;2023-06-22T14:23:59;12.97;;;8.30;;
577;SDS011;275;48.492;9.214;2023-06-22T14:26:28;12.27;;;8.00;;
577;SDS011;275;48.492;9.214;2023-06-22T14:28:55;12.33;;;8.17;;
577;SDS011;275;48.492;9.214;2023-06-22T14:31:22;10.67;;;7.73;;
577;SDS011;275;48.492;9.214;2023-06-22T14:33:49;14.40;;;7.47;;
577;SDS011;275;48.492;9.214;2023-06-22T14:36:16;13.37;;;8.50;;
577;SDS011;275;48.492;9.214;2023-06-22T14:38:43;12.30;;;8.73;;
577;SDS011;275;48.492;9.214;2023-06-22T14:41:12;14.60;;;8.97;;
577;SDS011;275;48.492;9.214;2023-06-22T14:43:43;13.43;;;8.37;;
577;SDS011;275;48.492;9.214;2023-06-22T14:46:11;13.97;;;8.27;;
577;SDS011;275;48.492;9.214;2023-06-22T14:48:38;12.07;;;8.07;;
577;SDS011;275;48.492;9.214;2023-06-22T14:51:05;11.80;;;8.07;;
577;SDS011;275;48.492;9.214;2023-06-22T14:53:31;12.87;;;8.97;;
577;SDS011;275;48.492;9.214;2023-06-22T14:55:58;13.77;;;9.37;;
577;SDS011;275;48.492;9.214;2023-06-22T14:58:28;13.80;;;9.27;;
577;SDS011;275;48.492;9.214;2023-06-22T15:00:58;11.30;;;8.47;;
577;SDS011;275;48.492;9.214;2023-06-22T15:03:24;11.30;;;8.67;;
577;SDS011;275;48.492;9.214;2023-06-22T15:05:53;12.37;;;7.73;;
577;SDS011;275;48.492;9.214;2023-06-22T15:08:21;8.00;;;6.90;;
577;SDS011;275;48.492;9.214;2023-06-22T15:10:48;13.23;;;8.33;;
577;SDS011;275;48.492;9.214;2023-06-22T15:13:14;15.13;;;8.20;;
577;SDS011;275;48.492;9.214;2023-06-22T15:15:43;11.10;;;7.80;;
577;SDS011;275;48.492;9.214;2023-06-22T15:18:10;10.17;;;7.30;;
577;SDS011;275;48.492;9.214;2023-06-22T15:20:37;13.67;;;8.13;;
577;SDS011;275;48.492;9.214;2023-06-22T15:23:04;11.40;;;7.50;;
577;SDS011;275;48.492;9.214;2023-06-22T15:25:31;8.87;;;7.23;;
577;SDS011;275;48.492;9.214;2023-06-22T15:27:58;14.93;;;8.50;;
577;SDS011;275;48.492;9.214;2023-06-22T15:30:25;10.70;;;7.27;;
577;SDS011;275;48.492;9.214;2023-06-22T15:32:53;11.57;;;8.40;;